sensor_id;sensor_type;location;lat;lon;timestamp;temperature;humidity
418;DHT22;49;48.530;9.200;2023-06-04T00:02:23;20.50;24.90
418;DHT22;49;48.530;9.200;2023-06-04T00:04:50;20.50;25.20
418;DHT22;49;48.530;9.200;2023-06-04T00:07:17;20.40;25.50
418;DHT22;49;48.530;9.200;2023-06-04T00:09:45;20.30;25.30
418;DHT22;49;48.530;9.200;2023-06-04T00:12:13;20.30;26.30
418;DHT22;49;48.530;9.200;2023-06-04T00:14:40;20.10;26.70
418;DHT22;49;48.530;9.200;2023-06-04T00:17:08;20.10;27.30
418;DHT22;49;48.530;9.200;2023-06-04T00:19:35;20.20;26.70
418;DHT22;49;48.530;9.200;2023-06-04T00:22:02;20.00;27.00
418;DHT22;49;48.530;9.200;2023-06-04T00:24:29;19.70;28.40
418;DHT22;49;48.530;9.200;2023-06-04T00:26:57;19.70;28.50
418;DHT22;49;48.530;9.200;2023-06-04T00:29:24;19.70;28.30
418;DHT22;49;48.530;9.200;2023-06-04T00:31:51;19.70;28.30
418;DHT22;49;48.530;9.200;2023-06-04T00:34:18;19.70;27.80
418;DHT22;49;48.530;9.200;2023-06-04T00:36:45;19.70;28.50
418;DHT22;49;48.530;9.200;2023-06-04T00:39:12;19.80;28.00
418;DHT22;49;48.530;9.200;2023-06-04T00:41:38;19.60;27.90
418;DHT22;49;48.530;9.200;2023-06-04T00:44:07;19.50;27.50
418;DHT22;49;48.530;9.200;2023-06-04T00:46:34;19.60;27.80
418;DHT22;49;48.530;9.200;2023-06-04T00:49:03;19.80;27.30
418;DHT22;49;48.530;9.200;2023-06-04T00:51:31;19.70;27.10
418;DHT22;49;48.530;9.200;2023-06-04T00:53:59;19.60;28.30
418;DHT22;49;48.530;9.200;2023-06-04T00:56:27;19.30;29.40
418;DHT22;49;48.530;9.200;2023-06-04T00:58:54;19.40;28.90
418;DHT22;49;48.530;9.200;2023-06-04T01:01:31;19.10;29.30
418;DHT22;49;48.530;9.200;2023-06-04T01:04:02;19.10;29.30
418;DHT22;49;48.530;9.200;2023-06-04T01:06:37;19.20;29.60
418;DHT22;49;48.530;9.200;2023-06-04T01:09:05;19.30;30.00
418;DHT22;49;48.530;9.200;2023-06-04T01:11:33;19.20;29.30
418;DHT22;49;48.530;9.200;2023-06-04T01:14:00;19.20;30.00
418;DHT22;49;48.530;9.200;2023-06-04T01:16:33;19.20;30.10
418;DHT22;49;48.530;9.200;2023-06-04T01:19:02;19.20;30.30
418;DHT22;49;48.530;9.200;2023-06-04T01:21:34;19.10;30.10
418;DHT22;49;48.530;9.200;2023-06-04T01:24:05;19.00;30.80
418;DHT22;49;48.530;9.200;2023-06-04T01:26:32;18.90;30.60
418;DHT22;49;48.530;9.200;2023-06-04T01:29:00;19.10;30.30
418;DHT22;49;48.530;9.200;2023-06-04T01:31:29;19.20;30.20
418;DHT22;49;48.530;9.200;2023-06-04T01:33:58;19.10;30.20
418;DHT22;49;48.530;9.200;2023-06-04T01:36:25;19.10;30.00
418;DHT22;49;48.530;9.200;2023-06-04T01:38:52;19.20;29.30
418;DHT22;49;48.530;9.200;2023-06-04T01:41:19;19.00;29.70
418;DHT22;49;48.530;9.200;2023-06-04T01:43:46;19.00;29.90
418;DHT22;49;48.530;9.200;2023-06-04T01:46:13;19.00;30.00
418;DHT22;49;48.530;9.200;2023-06-04T01:48:41;18.90;30.00
418;DHT22;49;48.530;9.200;2023-06-04T01:51:08;18.70;30.10
418;DHT22;49;48.530;9.200;2023-06-04T01:53:35;18.70;30.40
418;DHT22;49;48.530;9.200;2023-06-04T01:56:02;18.70;30.70
418;DHT22;49;48.530;9.200;2023-06-04T01:58:29;18.50;31.80
418;DHT22;49;48.530;9.200;2023-06-04T02:00:57;18.60;31.50
418;DHT22;49;48.530;9.200;2023-06-04T02:03:25;18.60;31.10
418;DHT22;49;48.530;9.200;2023-06-04T02:05:54;18.60;31.20
418;DHT22;49;48.530;9.200;2023-06-04T02:08:21;18.50;30.80
418;DHT22;49;48.530;9.200;2023-06-04T02:10:50;18.60;31.50
418;DHT22;49;48.530;9.200;2023-06-04T02:13:51;18.50;31.40
418;DHT22;49;48.530;9.200;2023-06-04T02:16:18;18.60;31.70
418;DHT22;49;48.530;9.200;2023-06-04T02:18:45;18.60;31.60
418;DHT22;49;48.530;9.200;2023-06-04T02:21:13;18.30;31.80
418;DHT22;49;48.530;9.200;2023-06-04T02:23:40;18.30;32.10
418;DHT22;49;48.530;9.200;2023-06-04T02:26:07;18.30;32.00
418;DHT22;49;48.530;9.200;2023-06-04T02:28:33;18.30;31.50
418;DHT22;49;48.530;9.200;2023-06-04T02:31:00;18.20;32.00
418;DHT22;49;48.530;9.200;2023-06-04T02:33:27;18.30;31.70
418;DHT22;49;48.530;9.200;2023-06-04T02:35:54;17.80;32.70
418;DHT22;49;48.530;9.200;2023-06-04T02:38:23;17.60;34.50
418;DHT22;49;48.530;9.200;2023-06-04T02:40:49;17.70;34.40
418;DHT22;49;48.530;9.200;2023-06-04T02:43:16;17.80;33.70
418;DHT22;49;48.530;9.200;2023-06-04T02:45:43;17.90;33.10
418;DHT22;49;48.530;9.200;2023-06-04T02:48:10;18.10;31.90
418;DHT22;49;48.530;9.200;2023-06-04T02:50:37;18.20;31.80
418;DHT22;49;48.530;9.200;2023-06-04T02:53:04;18.20;32.00
418;DHT22;49;48.530;9.200;2023-06-04T02:55:33;18.20;31.90
418;DHT22;49;48.530;9.200;2023-06-04T02:57:59;18.10;32.90
418;DHT22;49;48.530;9.200;2023-06-04T03:00:26;18.20;32.00
418;DHT22;49;48.530;9.200;2023-06-04T03:02:53;18.10;31.90
418;DHT22;49;48.530;9.200;2023-06-04T03:05:26;17.90;32.30
418;DHT22;49;48.530;9.200;2023-06-04T03:07:56;18.10;31.40
418;DHT22;49;48.530;9.200;2023-06-04T03:10:24;18.00;32.30
418;DHT22;49;48.530;9.200;2023-06-04T03:12:52;17.90;32.50
418;DHT22;49;48.530;9.200;2023-06-04T03:15:19;17.90;33.60
418;DHT22;49;48.530;9.200;2023-06-04T03:17:46;17.80;33.40
418;DHT22;49;48.530;9.200;2023-06-04T03:20:13;17.90;33.80
418;DHT22;49;48.530;9.200;2023-06-04T03:22:40;17.70;34.30
418;DHT22;49;48.530;9.200;2023-06-04T03:25:07;17.80;34.10
418;DHT22;49;48.530;9.200;2023-06-04T03:27:34;17.80;34.10
418;DHT22;49;48.530;9.200;2023-06-04T03:30:03;17.60;35.10
418;DHT22;49;48.530;9.200;2023-06-04T03:32:30;17.40;36.10
418;DHT22;49;48.530;9.200;2023-06-04T03:34:57;17.20;36.90
418;DHT22;49;48.530;9.200;2023-06-04T03:37:24;16.90;38.50
418;DHT22;49;48.530;9.200;2023-06-04T03:39:51;17.10;38.50
418;DHT22;49;48.530;9.200;2023-06-04T03:42:18;17.20;37.50
418;DHT22;49;48.530;9.200;2023-06-04T03:44:45;17.20;37.00
418;DHT22;49;48.530;9.200;2023-06-04T03:47:13;17.20;37.10
418;DHT22;49;48.530;9.200;2023-06-04T03:49:40;17.20;36.80
418;DHT22;49;48.530;9.200;2023-06-04T03:52:07;17.30;36.80
418;DHT22;49;48.530;9.200;2023-06-04T03:54:34;17.40;36.50
418;DHT22;49;48.530;9.200;2023-06-04T03:57:00;17.50;35.80
418;DHT22;49;48.530;9.200;2023-06-04T03:59:28;17.60;35.10
418;DHT22;49;48.530;9.200;2023-06-04T04:01:55;17.60;36.10
418;DHT22;49;48.530;9.200;2023-06-04T04:04:23;17.80;35.60
418;DHT22;49;48.530;9.200;2023-06-04T04:06:50;17.80;36.00
418;DHT22;49;48.530;9.200;2023-06-04T04:09:17;17.80;35.30
418;DHT22;49;48.530;9.200;2023-06-04T04:11:43;18.00;34.80
418;DHT22;49;48.530;9.200;2023-06-04T04:14:10;18.00;34.80
418;DHT22;49;48.530;9.200;2023-06-04T04:16:37;18.00;34.60
418;DHT22;49;48.530;9.200;2023-06-04T04:19:04;18.00;34.60
418;DHT22;49;48.530;9.200;2023-06-04T04:21:34;18.00;34.00
418;DHT22;49;48.530;9.200;2023-06-04T04:24:02;18.00;33.70
418;DHT22;49;48.530;9.200;2023-06-04T04:26:29;18.10;33.80
418;DHT22;49;48.530;9.200;2023-06-04T04:28:56;18.10;33.40
418;DHT22;49;48.530;9.200;2023-06-04T04:31:26;18.10;33.70
418;DHT22;49;48.530;9.200;2023-06-04T04:33:55;18.20;33.80
418;DHT22;49;48.530;9.200;2023-06-04T04:36:22;18.20;35.20
418;DHT22;49;48.530;9.200;2023-06-04T04:38:50;18.40;34.00
418;DHT22;49;48.530;9.200;2023-06-04T04:41:20;18.50;33.40
418;DHT22;49;48.530;9.200;2023-06-04T04:43:48;18.50;33.40
418;DHT22;49;48.530;9.200;2023-06-04T04:46:15;18.60;33.10
418;DHT22;49;48.530;9.200;2023-06-04T04:48:42;18.60;33.00
418;DHT22;49;48.530;9.200;2023-06-04T04:51:08;18.70;32.50
418;DHT22;49;48.530;9.200;2023-06-04T04:53:35;18.80;32.90
418;DHT22;49;48.530;9.200;2023-06-04T04:56:04;18.90;32.80
418;DHT22;49;48.530;9.200;2023-06-04T04:58:30;18.80;32.50
418;DHT22;49;48.530;9.200;2023-06-04T05:00:57;19.00;32.30
418;DHT22;49;48.530;9.200;2023-06-04T05:03:24;19.10;29.80
418;DHT22;49;48.530;9.200;2023-06-04T05:05:51;19.20;29.50
418;DHT22;49;48.530;9.200;2023-06-04T05:08:18;19.40;29.50
418;DHT22;49;48.530;9.200;2023-06-04T05:10:45;19.30;30.00
418;DHT22;49;48.530;9.200;2023-06-04T05:13:13;19.50;29.60
418;DHT22;49;48.530;9.200;2023-06-04T05:15:40;19.50;27.90
418;DHT22;49;48.530;9.200;2023-06-04T05:18:07;19.70;27.80
418;DHT22;49;48.530;9.200;2023-06-04T05:20:34;19.70;26.50
418;DHT22;49;48.530;9.200;2023-06-04T05:23:03;19.90;26.00
418;DHT22;49;48.530;9.200;2023-06-04T05:25:29;19.80;26.40
418;DHT22;49;48.530;9.200;2023-06-04T05:27:56;20.10;27.40
418;DHT22;49;48.530;9.200;2023-06-04T05:30:25;20.00;26.30
418;DHT22;49;48.530;9.200;2023-06-04T05:32:52;20.30;25.00
418;DHT22;49;48.530;9.200;2023-06-04T05:35:19;20.40;24.80
418;DHT22;49;48.530;9.200;2023-06-04T05:37:46;20.50;24.40
418;DHT22;49;48.530;9.200;2023-06-04T05:40:19;20.90;26.30
418;DHT22;49;48.530;9.200;2023-06-04T05:42:47;22.10;21.80
418;DHT22;49;48.530;9.200;2023-06-04T05:45:14;22.40;22.30
418;DHT22;49;48.530;9.200;2023-06-04T05:47:43;22.80;21.80
418;DHT22;49;48.530;9.200;2023-06-04T05:50:09;23.50;19.30
418;DHT22;49;48.530;9.200;2023-06-04T05:52:36;25.00;17.40
418;DHT22;49;48.530;9.200;2023-06-04T05:55:04;26.30;15.20
418;DHT22;49;48.530;9.200;2023-06-04T05:57:32;27.70;12.90
418;DHT22;49;48.530;9.200;2023-06-04T05:59:59;27.90;11.00
418;DHT22;49;48.530;9.200;2023-06-04T06:02:26;28.10;11.90
418;DHT22;49;48.530;9.200;2023-06-04T06:04:54;28.70;10.40
418;DHT22;49;48.530;9.200;2023-06-04T06:07:21;29.30;10.60
418;DHT22;49;48.530;9.200;2023-06-04T06:09:48;29.00;9.00
418;DHT22;49;48.530;9.200;2023-06-04T06:12:15;28.90;9.00
418;DHT22;49;48.530;9.200;2023-06-04T06:14:42;29.40;7.80
418;DHT22;49;48.530;9.200;2023-06-04T06:17:09;30.10;7.40
418;DHT22;49;48.530;9.200;2023-06-04T06:19:36;30.80;5.90
418;DHT22;49;48.530;9.200;2023-06-04T06:22:05;31.60;5.10
418;DHT22;49;48.530;9.200;2023-06-04T06:24:32;30.90;5.80
418;DHT22;49;48.530;9.200;2023-06-04T06:26:59;31.00;5.80
418;DHT22;49;48.530;9.200;2023-06-04T06:29:26;30.90;5.80
418;DHT22;49;48.530;9.200;2023-06-04T06:31:53;31.20;5.90
418;DHT22;49;48.530;9.200;2023-06-04T06:34:20;31.00;6.20
418;DHT22;49;48.530;9.200;2023-06-04T06:36:47;31.30;6.00
418;DHT22;49;48.530;9.200;2023-06-04T06:39:16;32.00;5.10
418;DHT22;49;48.530;9.200;2023-06-04T06:41:43;32.50;4.80
418;DHT22;49;48.530;9.200;2023-06-04T06:44:10;32.90;4.00
418;DHT22;49;48.530;9.200;2023-06-04T06:46:37;33.60;2.00
418;DHT22;49;48.530;9.200;2023-06-04T06:49:04;33.10;2.60
418;DHT22;49;48.530;9.200;2023-06-04T06:51:31;31.80;3.60
418;DHT22;49;48.530;9.200;2023-06-04T06:53:58;32.40;4.30
418;DHT22;49;48.530;9.200;2023-06-04T06:56:26;33.00;3.60
418;DHT22;49;48.530;9.200;2023-06-04T06:58:53;33.10;3.10
418;DHT22;49;48.530;9.200;2023-06-04T07:01:19;33.70;2.70
418;DHT22;49;48.530;9.200;2023-06-04T07:03:46;33.90;2.30
418;DHT22;49;48.530;9.200;2023-06-04T07:06:13;34.00;2.10
418;DHT22;49;48.530;9.200;2023-06-04T07:08:40;34.30;1.60
418;DHT22;49;48.530;9.200;2023-06-04T07:11:07;34.60;1.90
418;DHT22;49;48.530;9.200;2023-06-04T07:13:38;34.20;1.00
418;DHT22;49;48.530;9.200;2023-06-04T07:16:05;33.60;1.70
418;DHT22;49;48.530;9.200;2023-06-04T07:18:32;33.40;1.90
418;DHT22;49;48.530;9.200;2023-06-04T07:20:59;33.20;2.10
418;DHT22;49;48.530;9.200;2023-06-04T07:23:26;33.40;1.50
418;DHT22;49;48.530;9.200;2023-06-04T07:25:53;33.50;2.20
418;DHT22;49;48.530;9.200;2023-06-04T07:28:20;34.00;1.40
418;DHT22;49;48.530;9.200;2023-06-04T07:30:49;33.80;1.50
418;DHT22;49;48.530;9.200;2023-06-04T07:33:16;34.40;1.80
418;DHT22;49;48.530;9.200;2023-06-04T07:35:42;35.10;1.00
418;DHT22;49;48.530;9.200;2023-06-04T07:38:09;35.20;1.10
418;DHT22;49;48.530;9.200;2023-06-04T07:40:36;34.10;1.10
418;DHT22;49;48.530;9.200;2023-06-04T07:43:03;33.80;1.60
418;DHT22;49;48.530;9.200;2023-06-04T07:45:30;32.50;2.60
418;DHT22;49;48.530;9.200;2023-06-04T07:47:58;31.80;3.00
418;DHT22;49;48.530;9.200;2023-06-04T07:50:25;32.50;3.30
418;DHT22;49;48.530;9.200;2023-06-04T07:52:52;33.10;2.90
418;DHT22;49;48.530;9.200;2023-06-04T07:55:19;32.40;2.80
418;DHT22;49;48.530;9.200;2023-06-04T07:57:46;32.80;4.20
418;DHT22;49;48.530;9.200;2023-06-04T08:00:14;32.50;3.50
418;DHT22;49;48.530;9.200;2023-06-04T08:02:43;32.70;3.50
418;DHT22;49;48.530;9.200;2023-06-04T08:05:11;32.40;4.10
418;DHT22;49;48.530;9.200;2023-06-04T08:07:40;32.10;4.40
418;DHT22;49;48.530;9.200;2023-06-04T08:10:07;32.50;4.00
418;DHT22;49;48.530;9.200;2023-06-04T08:12:34;33.00;3.60
418;DHT22;49;48.530;9.200;2023-06-04T08:15:02;33.00;3.40
418;DHT22;49;48.530;9.200;2023-06-04T08:17:29;32.80;3.60
418;DHT22;49;48.530;9.200;2023-06-04T08:19:56;32.10;3.70
418;DHT22;49;48.530;9.200;2023-06-04T08:22:24;31.20;4.60
418;DHT22;49;48.530;9.200;2023-06-04T08:24:52;31.80;4.40
418;DHT22;49;48.530;9.200;2023-06-04T08:27:19;31.90;3.90
418;DHT22;49;48.530;9.200;2023-06-04T08:29:46;32.00;4.50
418;DHT22;49;48.530;9.200;2023-06-04T08:32:13;30.90;5.80
418;DHT22;49;48.530;9.200;2023-06-04T08:34:40;30.60;5.70
418;DHT22;49;48.530;9.200;2023-06-04T08:37:07;29.80;7.00
418;DHT22;49;48.530;9.200;2023-06-04T08:39:35;29.80;7.10
418;DHT22;49;48.530;9.200;2023-06-04T08:42:06;30.60;6.50
418;DHT22;49;48.530;9.200;2023-06-04T08:44:34;30.00;7.20
418;DHT22;49;48.530;9.200;2023-06-04T08:47:05;30.10;6.80
418;DHT22;49;48.530;9.200;2023-06-04T08:49:34;30.90;5.80
418;DHT22;49;48.530;9.200;2023-06-04T08:52:02;30.90;5.80
418;DHT22;49;48.530;9.200;2023-06-04T08:54:32;31.00;6.00
418;DHT22;49;48.530;9.200;2023-06-04T08:57:00;30.70;5.60
418;DHT22;49;48.530;9.200;2023-06-04T08:59:27;30.80;6.60
418;DHT22;49;48.530;9.200;2023-06-04T09:01:55;30.80;6.00
418;DHT22;49;48.530;9.200;2023-06-04T09:04:22;30.50;6.50
418;DHT22;49;48.530;9.200;2023-06-04T09:06:49;29.40;8.00
418;DHT22;49;48.530;9.200;2023-06-04T09:09:17;29.70;7.40
418;DHT22;49;48.530;9.200;2023-06-04T09:11:50;29.60;7.60
418;DHT22;49;48.530;9.200;2023-06-04T09:14:19;29.80;7.70
418;DHT22;49;48.530;9.200;2023-06-04T09:16:47;29.30;7.30
418;DHT22;49;48.530;9.200;2023-06-04T09:19:14;28.80;8.70
418;DHT22;49;48.530;9.200;2023-06-04T09:21:52;28.80;8.80
418;DHT22;49;48.530;9.200;2023-06-04T09:24:20;28.40;8.90
418;DHT22;49;48.530;9.200;2023-06-04T09:26:47;28.20;9.50
418;DHT22;49;48.530;9.200;2023-06-04T09:29:14;27.40;10.30
418;DHT22;49;48.530;9.200;2023-06-04T09:31:44;27.20;10.70
418;DHT22;49;48.530;9.200;2023-06-04T09:34:12;26.90;11.00
418;DHT22;49;48.530;9.200;2023-06-04T09:36:39;26.70;10.90
418;DHT22;49;48.530;9.200;2023-06-04T09:39:15;26.90;10.90
418;DHT22;49;48.530;9.200;2023-06-04T09:41:42;26.90;11.00
418;DHT22;49;48.530;9.200;2023-06-04T09:44:09;27.20;10.40
418;DHT22;49;48.530;9.200;2023-06-04T09:46:37;27.30;11.00
418;DHT22;49;48.530;9.200;2023-06-04T09:49:06;27.70;10.30
418;DHT22;49;48.530;9.200;2023-06-04T09:51:33;27.90;9.60
418;DHT22;49;48.530;9.200;2023-06-04T09:54:01;27.70;10.70
418;DHT22;49;48.530;9.200;2023-06-04T09:56:30;27.60;10.00
418;DHT22;49;48.530;9.200;2023-06-04T09:59:05;26.90;10.80
418;DHT22;49;48.530;9.200;2023-06-04T10:01:33;26.90;10.80
418;DHT22;49;48.530;9.200;2023-06-04T10:04:03;27.20;11.10
418;DHT22;49;48.530;9.200;2023-06-04T10:06:34;27.40;10.30
418;DHT22;49;48.530;9.200;2023-06-04T10:09:05;27.80;10.10
418;DHT22;49;48.530;9.200;2023-06-04T10:11:35;27.90;10.30
418;DHT22;49;48.530;9.200;2023-06-04T10:14:03;28.10;10.60
418;DHT22;49;48.530;9.200;2023-06-04T10:16:32;28.00;8.80
418;DHT22;49;48.530;9.200;2023-06-04T10:18:59;28.10;9.20
418;DHT22;49;48.530;9.200;2023-06-04T10:21:27;28.00;9.90
418;DHT22;49;48.530;9.200;2023-06-04T10:23:59;28.70;8.70
418;DHT22;49;48.530;9.200;2023-06-04T10:26:26;28.70;8.50
418;DHT22;49;48.530;9.200;2023-06-04T10:28:53;28.50;8.90
418;DHT22;49;48.530;9.200;2023-06-04T10:31:22;28.30;8.70
418;DHT22;49;48.530;9.200;2023-06-04T10:33:53;28.50;8.20
418;DHT22;49;48.530;9.200;2023-06-04T10:36:22;27.90;8.50
418;DHT22;49;48.530;9.200;2023-06-04T10:38:51;27.90;9.40
418;DHT22;49;48.530;9.200;2023-06-04T10:41:20;28.20;8.60
418;DHT22;49;48.530;9.200;2023-06-04T10:43:49;27.60;9.20
418;DHT22;49;48.530;9.200;2023-06-04T10:46:17;27.70;9.10
418;DHT22;49;48.530;9.200;2023-06-04T10:48:48;27.60;9.10
418;DHT22;49;48.530;9.200;2023-06-04T10:51:16;27.80;8.60
418;DHT22;49;48.530;9.200;2023-06-04T10:53:43;28.10;8.80
418;DHT22;49;48.530;9.200;2023-06-04T10:56:10;28.60;7.90
418;DHT22;49;48.530;9.200;2023-06-04T10:58:40;29.00;7.60
418;DHT22;49;48.530;9.200;2023-06-04T11:01:07;29.50;7.30
418;DHT22;49;48.530;9.200;2023-06-04T11:03:37;29.60;7.30
418;DHT22;49;48.530;9.200;2023-06-04T11:06:15;29.10;7.10
418;DHT22;49;48.530;9.200;2023-06-04T11:08:42;28.10;8.30
418;DHT22;49;48.530;9.200;2023-06-04T11:11:13;28.10;8.50
418;DHT22;49;48.530;9.200;2023-06-04T11:13:42;28.10;7.70
418;DHT22;49;48.530;9.200;2023-06-04T11:16:16;28.30;8.30
418;DHT22;49;48.530;9.200;2023-06-04T11:18:44;29.10;7.00
418;DHT22;49;48.530;9.200;2023-06-04T11:21:20;29.10;6.60
418;DHT22;49;48.530;9.200;2023-06-04T11:23:47;28.50;7.70
418;DHT22;49;48.530;9.200;2023-06-04T11:26:14;28.00;8.80
418;DHT22;49;48.530;9.200;2023-06-04T11:28:43;28.30;8.00
418;DHT22;49;48.530;9.200;2023-06-04T11:31:10;28.90;7.60
418;DHT22;49;48.530;9.200;2023-06-04T11:33:44;28.60;7.50
418;DHT22;49;48.530;9.200;2023-06-04T11:36:22;28.30;7.40
418;DHT22;49;48.530;9.200;2023-06-04T11:38:54;28.30;7.60
418;DHT22;49;48.530;9.200;2023-06-04T11:41:24;27.90;7.90
418;DHT22;49;48.530;9.200;2023-06-04T11:43:55;27.80;7.80
418;DHT22;49;48.530;9.200;2023-06-04T11:46:22;28.20;7.60
418;DHT22;49;48.530;9.200;2023-06-04T11:48:50;28.50;8.30
418;DHT22;49;48.530;9.200;2023-06-04T11:51:19;28.10;7.90
418;DHT22;49;48.530;9.200;2023-06-04T11:53:46;28.30;8.20
418;DHT22;49;48.530;9.200;2023-06-04T11:56:14;28.90;8.40
418;DHT22;49;48.530;9.200;2023-06-04T11:58:41;29.10;7.00
418;DHT22;49;48.530;9.200;2023-06-04T12:01:10;28.90;7.00
418;DHT22;49;48.530;9.200;2023-06-04T12:03:40;28.30;8.10
418;DHT22;49;48.530;9.200;2023-06-04T12:06:11;28.40;7.70
418;DHT22;49;48.530;9.200;2023-06-04T12:08:46;28.30;7.50
418;DHT22;49;48.530;9.200;2023-06-04T12:11:28;28.30;7.80
418;DHT22;49;48.530;9.200;2023-06-04T12:13:57;28.80;7.20
418;DHT22;49;48.530;9.200;2023-06-04T12:16:26;29.00;6.50
418;DHT22;49;48.530;9.200;2023-06-04T12:19:07;28.10;7.30
418;DHT22;49;48.530;9.200;2023-06-04T12:21:34;28.00;7.90
418;DHT22;49;48.530;9.200;2023-06-04T12:24:09;28.30;6.50
418;DHT22;49;48.530;9.200;2023-06-04T12:26:37;28.60;6.30
418;DHT22;49;48.530;9.200;2023-06-04T12:29:10;29.00;5.50
418;DHT22;49;48.530;9.200;2023-06-04T12:31:39;29.50;5.30
418;DHT22;49;48.530;9.200;2023-06-04T12:34:05;29.30;6.30
418;DHT22;49;48.530;9.200;2023-06-04T12:36:32;29.20;5.90
418;DHT22;49;48.530;9.200;2023-06-04T12:39:01;29.30;6.20
418;DHT22;49;48.530;9.200;2023-06-04T12:41:29;29.20;6.50
418;DHT22;49;48.530;9.200;2023-06-04T12:43:56;28.70;5.70
418;DHT22;49;48.530;9.200;2023-06-04T12:46:23;28.10;6.60
418;DHT22;49;48.530;9.200;2023-06-04T12:48:53;28.20;6.80
418;DHT22;49;48.530;9.200;2023-06-04T12:51:21;29.10;4.80
418;DHT22;49;48.530;9.200;2023-06-04T12:53:48;29.60;5.10
418;DHT22;49;48.530;9.200;2023-06-04T12:56:15;29.00;4.70
418;DHT22;49;48.530;9.200;2023-06-04T12:58:41;28.90;5.30
418;DHT22;49;48.530;9.200;2023-06-04T13:01:08;28.00;6.60
418;DHT22;49;48.530;9.200;2023-06-04T13:03:36;28.00;6.50
418;DHT22;49;48.530;9.200;2023-06-04T13:06:05;28.00;6.30
418;DHT22;49;48.530;9.200;2023-06-04T13:08:33;28.10;7.60
418;DHT22;49;48.530;9.200;2023-06-04T13:11:00;28.20;6.60
418;DHT22;49;48.530;9.200;2023-06-04T13:13:27;28.40;6.40
418;DHT22;49;48.530;9.200;2023-06-04T13:15:55;28.80;6.30
418;DHT22;49;48.530;9.200;2023-06-04T13:18:22;29.30;4.90
418;DHT22;49;48.530;9.200;2023-06-04T13:20:49;29.40;5.00
418;DHT22;49;48.530;9.200;2023-06-04T13:23:17;29.70;5.10
418;DHT22;49;48.530;9.200;2023-06-04T13:25:44;29.60;5.10
418;DHT22;49;48.530;9.200;2023-06-04T13:28:11;29.40;4.90
418;DHT22;49;48.530;9.200;2023-06-04T13:30:38;29.00;4.70
418;DHT22;49;48.530;9.200;2023-06-04T13:33:05;29.40;5.00
418;DHT22;49;48.530;9.200;2023-06-04T13:35:32;28.70;4.60
418;DHT22;49;48.530;9.200;2023-06-04T13:37:59;28.00;5.30
418;DHT22;49;48.530;9.200;2023-06-04T13:40:28;27.90;5.50
418;DHT22;49;48.530;9.200;2023-06-04T13:42:55;28.30;5.20
418;DHT22;49;48.530;9.200;2023-06-04T13:45:21;28.90;5.90
418;DHT22;49;48.530;9.200;2023-06-04T13:47:49;29.10;4.80
418;DHT22;49;48.530;9.200;2023-06-04T13:50:16;29.40;5.00
418;DHT22;49;48.530;9.200;2023-06-04T13:52:43;29.50;4.90
418;DHT22;49;48.530;9.200;2023-06-04T13:55:12;29.60;4.50
418;DHT22;49;48.530;9.200;2023-06-04T13:57:41;29.40;3.90
418;DHT22;49;48.530;9.200;2023-06-04T14:00:08;28.20;4.30
418;DHT22;49;48.530;9.200;2023-06-04T14:02:36;28.20;4.50
418;DHT22;49;48.530;9.200;2023-06-04T14:05:05;28.50;5.10
418;DHT22;49;48.530;9.200;2023-06-04T14:07:32;28.40;5.40
418;DHT22;49;48.530;9.200;2023-06-04T14:09:59;28.40;5.40
418;DHT22;49;48.530;9.200;2023-06-04T14:12:27;28.20;4.90
418;DHT22;49;48.530;9.200;2023-06-04T14:14:55;27.90;4.20
418;DHT22;49;48.530;9.200;2023-06-04T14:17:22;27.90;4.10
418;DHT22;49;48.530;9.200;2023-06-04T14:19:49;28.00;4.20
418;DHT22;49;48.530;9.200;2023-06-04T14:22:16;28.30;4.40
418;DHT22;49;48.530;9.200;2023-06-04T14:24:43;28.50;3.60
418;DHT22;49;48.530;9.200;2023-06-04T14:27:09;28.60;3.80
418;DHT22;49;48.530;9.200;2023-06-04T14:29:36;28.60;3.80
418;DHT22;49;48.530;9.200;2023-06-04T14:32:05;28.70;3.30
418;DHT22;49;48.530;9.200;2023-06-04T14:34:32;28.70;3.20
418;DHT22;49;48.530;9.200;2023-06-04T14:36:59;29.00;3.60
418;DHT22;49;48.530;9.200;2023-06-04T14:39:26;29.90;2.20
418;DHT22;49;48.530;9.200;2023-06-04T14:41:53;29.40;3.00
418;DHT22;49;48.530;9.200;2023-06-04T14:44:20;28.90;4.70
418;DHT22;49;48.530;9.200;2023-06-04T14:46:49;28.80;4.60
418;DHT22;49;48.530;9.200;2023-06-04T14:49:18;27.90;4.80
418;DHT22;49;48.530;9.200;2023-06-04T14:51:45;27.40;4.50
418;DHT22;49;48.530;9.200;2023-06-04T14:54:12;27.90;4.20
418;DHT22;49;48.530;9.200;2023-06-04T14:56:39;28.10;4.30
418;DHT22;49;48.530;9.200;2023-06-04T14:59:06;27.90;4.10
418;DHT22;49;48.530;9.200;2023-06-04T15:01:36;27.80;5.10
418;DHT22;49;48.530;9.200;2023-06-04T15:04:03;27.30;5.50
418;DHT22;49;48.530;9.200;2023-06-04T15:06:32;27.60;4.30
418;DHT22;49;48.530;9.200;2023-06-04T15:08:59;27.30;4.80
418;DHT22;49;48.530;9.200;2023-06-04T15:11:25;27.20;4.40
418;DHT22;49;48.530;9.200;2023-06-04T15:13:53;27.00;5.70
418;DHT22;49;48.530;9.200;2023-06-04T15:16:20;27.50;5.10
418;DHT22;49;48.530;9.200;2023-06-04T15:18:47;27.90;4.40
418;DHT22;49;48.530;9.200;2023-06-04T15:21:14;28.30;3.60
418;DHT22;49;48.530;9.200;2023-06-04T15:23:42;28.60;3.60
418;DHT22;49;48.530;9.200;2023-06-04T15:26:14;28.20;4.30
418;DHT22;49;48.530;9.200;2023-06-04T15:28:41;28.30;4.40
418;DHT22;49;48.530;9.200;2023-06-04T15:31:08;28.50;3.60
418;DHT22;49;48.530;9.200;2023-06-04T15:33:35;28.60;3.80
418;DHT22;49;48.530;9.200;2023-06-04T15:36:02;28.30;4.10
418;DHT22;49;48.530;9.200;2023-06-04T15:38:28;28.20;4.30
418;DHT22;49;48.530;9.200;2023-06-04T15:40:57;28.60;4.50
418;DHT22;49;48.530;9.200;2023-06-04T15:43:24;28.70;4.00
418;DHT22;49;48.530;9.200;2023-06-04T15:45:50;28.60;3.70
418;DHT22;49;48.530;9.200;2023-06-04T15:48:19;28.10;4.90
418;DHT22;49;48.530;9.200;2023-06-04T15:50:46;27.20;4.80
418;DHT22;49;48.530;9.200;2023-06-04T15:53:14;26.70;5.90
418;DHT22;49;48.530;9.200;2023-06-04T15:55:40;27.20;6.10
418;DHT22;49;48.530;9.200;2023-06-04T15:58:09;27.60;5.30
418;DHT22;49;48.530;9.200;2023-06-04T16:00:37;27.70;5.20
418;DHT22;49;48.530;9.200;2023-06-04T16:03:03;27.30;5.10
418;DHT22;49;48.530;9.200;2023-06-04T16:05:30;27.20;6.00
418;DHT22;49;48.530;9.200;2023-06-04T16:07:57;27.30;5.30
418;DHT22;49;48.530;9.200;2023-06-04T16:10:24;27.80;4.10
418;DHT22;49;48.530;9.200;2023-06-04T16:12:51;28.10;5.00
418;DHT22;49;48.530;9.200;2023-06-04T16:15:19;27.70;4.00
418;DHT22;49;48.530;9.200;2023-06-04T16:17:46;27.30;4.40
418;DHT22;49;48.530;9.200;2023-06-04T16:20:13;27.40;4.50
418;DHT22;49;48.530;9.200;2023-06-04T16:22:40;27.40;5.20
418;DHT22;49;48.530;9.200;2023-06-04T16:25:08;27.50;4.20
418;DHT22;49;48.530;9.200;2023-06-04T16:27:35;27.60;4.30
418;DHT22;49;48.530;9.200;2023-06-04T16:30:03;27.10;4.80
418;DHT22;49;48.530;9.200;2023-06-04T16:32:31;26.80;5.40
418;DHT22;49;48.530;9.200;2023-06-04T16:34:58;26.80;5.00
418;DHT22;49;48.530;9.200;2023-06-04T16:37:27;26.90;4.50
418;DHT22;49;48.530;9.200;2023-06-04T16:39:54;26.80;5.40
418;DHT22;49;48.530;9.200;2023-06-04T16:42:22;26.60;5.40
418;DHT22;49;48.530;9.200;2023-06-04T16:44:50;26.70;5.10
418;DHT22;49;48.530;9.200;2023-06-04T16:47:17;27.00;5.20
418;DHT22;49;48.530;9.200;2023-06-04T16:49:46;27.60;4.50
418;DHT22;49;48.530;9.200;2023-06-04T16:52:13;27.50;4.40
418;DHT22;49;48.530;9.200;2023-06-04T16:54:40;27.40;4.20
418;DHT22;49;48.530;9.200;2023-06-04T16:57:07;27.10;4.00
418;DHT22;49;48.530;9.200;2023-06-04T16:59:34;26.90;5.00
418;DHT22;49;48.530;9.200;2023-06-04T17:02:01;27.10;5.10
418;DHT22;49;48.530;9.200;2023-06-04T17:04:29;27.00;5.00
418;DHT22;49;48.530;9.200;2023-06-04T17:06:57;26.90;5.40